Terminal Aerodrome Forecast
Issued by NWS

Home | Current Version | Previous Version | Text Only | Print | Product List | Glossary On
Versions: 1 2 3 4 5 6 7 8 9 10 11 12 13 14 15 16 17 18 19 20 21 22 23 24 25 26 27 28 29 30 31 32 33 34 35 36 37 38 39
000
FTAK31 PANC 280532
TAFADL
TAF
PADL 280532Z 2806/2906 10015G22KT P6SM SCT050 BKN100 WS020/16050KT
     FM280800 06010G18KT 4SM -RASN BKN015 OVC025 WS020/16045KT
      AMD LTD TO CLD VIS AND WIND 2807/2816=

USA.gov is the U.S. government's official web portal to all federal, state and local government web resources and services.